Time;durP1;ratioP1;P1;durP2;ratioP2;P2;SDS_P1;SDS_P2;PMS_P1;PMS_P2;Temp;Humidity;BMP_temperature;BMP_pressure;BME280_temperature;BME280_humidity;BME280_pressure;Samples;Min_cycle;Max_cycle;Signal;HPM_P1;HPM_P2
2021/03/14 00:00:07;;;;;;;2.30;1.30;;;5.50;1.00;;;;;;4926895;28;20236;-75
2021/03/14 00:02:33;;;;;;;6.45;3.45;;;5.60;1.00;;;;;;4921880;29;20221;-75
2021/03/14 00:04:59;;;;;;;3.03;2.08;;;5.60;1.00;;;;;;4927476;28;20232;-75
2021/03/14 00:07:26;;;;;;;2.05;1.65;;;5.60;1.00;;;;;;4916476;28;20335;-74
2021/03/14 00:09:53;;;;;;;2.30;2.10;;;5.60;1.00;;;;;;4935920;28;20368;-75
2021/03/14 00:12:19;;;;;;;2.40;1.77;;;5.60;1.00;;;;;;4917195;29;20232;-75
2021/03/14 00:14:45;;;;;;;4.28;1.70;;;5.70;1.00;;;;;;4927679;28;20640;-75
2021/03/14 00:17:11;;;;;;;4.68;2.67;;;5.70;1.00;;;;;;4907053;28;20313;-75
2021/03/14 00:19:37;;;;;;;2.60;1.60;;;5.70;1.00;;;;;;4911054;29;20320;-74
2021/03/14 00:22:04;;;;;;;2.88;1.83;;;5.80;1.00;;;;;;4905248;28;20274;-74
2021/03/14 00:24:30;;;;;;;2.25;2.15;;;5.80;1.00;;;;;;4912125;29;20317;-75
2021/03/14 00:26:57;;;;;;;3.00;1.80;;;5.80;1.00;;;;;;4894272;28;20232;-74
2021/03/14 00:29:23;;;;;;;1.85;1.65;;;5.80;1.00;;;;;;4913569;29;20223;-75
2021/03/14 00:31:51;;;;;;;2.00;1.60;;;5.80;1.00;;;;;;4909232;29;20226;-76
2021/03/14 00:34:17;;;;;;;3.03;1.77;;;5.80;1.00;;;;;;4915523;28;20274;-72
2021/03/14 00:36:44;;;;;;;1.67;1.52;;;5.80;1.00;;;;;;4903764;28;20305;-75
2021/03/14 00:39:10;;;;;;;2.20;1.60;;;5.80;1.00;;;;;;4920733;28;21023;-76
2021/03/14 00:41:36;;;;;;;3.60;1.70;;;5.80;1.00;;;;;;4917274;29;20543;-71
2021/03/14 00:44:03;;;;;;;2.25;2.05;;;5.80;1.00;;;;;;4908585;28;20226;-75
2021/03/14 00:46:30;;;;;;;4.15;1.90;;;5.80;1.00;;;;;;4929464;29;20741;-73
2021/03/14 00:48:56;;;;;;;2.42;1.80;;;5.80;1.00;;;;;;4924711;28;20298;-74
2021/03/14 00:51:23;;;;;;;2.47;1.90;;;5.80;1.00;;;;;;4930128;28;20332;-73
2021/03/14 00:53:52;;;;;;;2.17;1.85;;;5.80;1.00;;;;;;4921206;28;20236;-73
2021/03/14 00:56:19;;;;;;;1.90;1.65;;;5.80;1.00;;;;;;4926546;28;20240;-74
2021/03/14 00:58:45;;;;;;;1.80;1.70;;;5.80;1.00;;;;;;4915956;28;20245;-74
2021/03/14 01:01:12;;;;;;;2.42;1.73;;;5.80;1.00;;;;;;4916288;28;20996;-74
2021/03/14 01:03:38;;;;;;;2.03;1.70;;;5.80;1.00;;;;;;4900076;29;20237;-75
2021/03/14 01:06:05;;;;;;;2.50;2.08;;;5.80;1.00;;;;;;4911164;29;20229;-75
2021/03/14 01:08:32;;;;;;;3.03;2.00;;;5.80;1.00;;;;;;4895664;28;21034;-75
2021/03/14 01:10:58;;;;;;;2.60;1.73;;;5.80;1.00;;;;;;4914423;28;20237;-74
2021/03/14 01:13:24;;;;;;;4.47;2.30;;;5.80;1.00;;;;;;4902092;28;20280;-74
2021/03/14 01:15:50;;;;;;;2.60;1.80;;;5.80;1.00;;;;;;4916067;29;20230;-75
2021/03/14 01:18:17;;;;;;;1.73;1.63;;;5.90;1.00;;;;;;4904002;28;20730;-75
2021/03/14 01:20:44;;;;;;;2.97;1.70;;;5.90;1.00;;;;;;4913032;28;20226;-74
2021/03/14 01:23:10;;;;;;;2.25;1.90;;;5.90;1.00;;;;;;4911737;29;20241;-74
2021/03/14 01:25:39;;;;;;;3.08;1.98;;;5.90;1.00;;;;;;4894448;28;20229;-75
2021/03/14 01:28:06;;;;;;;2.40;1.92;;;6.00;1.00;;;;;;4911743;29;20253;-75
2021/03/14 01:30:32;;;;;;;2.42;1.70;;;5.90;1.00;;;;;;4898058;28;20221;-75
2021/03/14 01:32:59;;;;;;;2.65;1.70;;;5.90;1.00;;;;;;4892479;29;20236;-74
2021/03/14 01:35:26;;;;;;;3.10;2.20;;;5.90;1.00;;;;;;4895732;29;20724;-75
2021/03/14 01:37:52;;;;;;;5.93;3.35;;;5.80;1.00;;;;;;4910238;28;21034;-73
2021/03/14 01:40:23;;;;;;;3.15;1.67;;;5.70;1.00;;;;;;4886471;28;20234;-75
2021/03/14 01:42:49;;;;;;;2.13;1.70;;;5.70;1.00;;;;;;4911203;28;20218;-74
2021/03/14 01:45:16;;;;;;;4.63;2.05;;;5.60;1.00;;;;;;4896384;29;20238;-74
2021/03/14 01:47:45;;;;;;;4.43;2.00;;;5.60;1.00;;;;;;4915167;28;20245;-75
2021/03/14 01:50:15;;;;;;;2.17;1.50;;;5.60;1.00;;;;;;4900328;29;20241;-75
2021/03/14 01:52:43;;;;;;;2.60;1.90;;;5.60;1.00;;;;;;4918547;29;20270;-74
2021/03/14 01:55:10;;;;;;;2.78;2.08;;;5.60;1.00;;;;;;4902379;28;20313;-75
2021/03/14 01:57:37;;;;;;;2.85;2.50;;;5.50;1.00;;;;;;4913672;28;20324;-75
2021/03/14 02:00:05;;;;;;;2.92;2.22;;;5.50;1.00;;;;;;4899594;28;20222;-74
2021/03/14 02:02:31;;;;;;;4.38;2.30;;;5.60;1.00;;;;;;4915589;29;20226;-75
2021/03/14 02:04:58;;;;;;;3.30;2.33;;;5.60;1.00;;;;;;4910071;28;20264;-73
2021/03/14 02:07:24;;;;;;;4.03;2.40;;;5.60;1.00;;;;;;4909747;28;20257;-75
2021/03/14 02:09:51;;;;;;;3.92;2.70;;;5.60;1.00;;;;;;4911299;29;20237;-76
2021/03/14 02:12:22;;;;;;;5.32;3.00;;;5.60;1.00;;;;;;4880441;29;20233;-75
2021/03/14 02:14:51;;;;;;;3.22;2.83;;;5.70;1.00;;;;;;4918969;29;20771;-75
2021/03/14 02:17:20;;;;;;;3.88;2.80;;;5.70;1.00;;;;;;4899996;28;20234;-75
2021/03/14 02:19:52;;;;;;;2.88;2.40;;;5.80;1.00;;;;;;4918616;29;21556;-76
2021/03/14 02:22:22;;;;;;;4.13;2.70;;;5.80;1.00;;;;;;4906915;28;20226;-75
2021/03/14 02:24:54;;;;;;;3.42;2.58;;;5.80;1.00;;;;;;4919167;29;20230;-74
2021/03/14 02:27:21;;;;;;;5.15;3.30;;;5.90;1.00;;;;;;4910155;28;20432;-74
2021/03/14 02:29:48;;;;;;;4.43;2.85;;;5.90;1.00;;;;;;4916823;28;20256;-74
2021/03/14 02:32:18;;;;;;;3.25;2.72;;;5.90;1.00;;;;;;4901639;29;20225;-76
2021/03/14 02:34:46;;;;;;;4.65;3.20;;;5.90;1.00;;;;;;4915041;28;20241;-75
2021/03/14 02:37:14;;;;;;;4.82;2.90;;;5.90;1.00;;;;;;4893754;28;20587;-74
2021/03/14 02:39:42;;;;;;;3.20;2.90;;;5.90;1.00;;;;;;4917169;28;20240;-73
2021/03/14 02:42:12;;;;;;;3.92;3.53;;;5.90;1.00;;;;;;4906176;28;20233;-75
2021/03/14 02:44:44;;;;;;;4.38;3.47;;;5.80;1.00;;;;;;4902075;29;20257;-74
2021/03/14 02:47:11;;;;;;;4.15;2.97;;;5.80;1.00;;;;;;4903528;28;20226;-74
2021/03/14 02:49:38;;;;;;;3.97;3.53;;;5.80;1.00;;;;;;4914872;29;20732;-75
2021/03/14 02:52:06;;;;;;;5.82;4.45;;;5.60;1.00;;;;;;4908595;28;21150;-75
2021/03/14 02:54:33;;;;;;;6.20;4.70;;;5.60;1.00;;;;;;4923044;29;20272;-74
2021/03/14 02:57:01;;;;;;;4.40;3.47;;;5.50;1.00;;;;;;4919866;28;20243;-73
2021/03/14 02:59:28;;;;;;;5.45;5.05;;;5.40;1.00;;;;;;4918700;29;20353;-73
2021/03/14 03:01:55;;;;;;;6.50;4.25;;;5.30;1.00;;;;;;4928037;29;20259;-75
2021/03/14 03:04:24;;;;;;;5.75;3.58;;;5.20;1.00;;;;;;4909444;28;20230;-75
2021/03/14 03:06:51;;;;;;;4.10;3.80;;;5.20;1.00;;;;;;4924477;29;23012;-75
2021/03/14 03:09:18;;;;;;;5.32;3.90;;;5.20;1.00;;;;;;4909175;28;20234;-75
2021/03/14 03:11:48;;;;;;;4.43;4.05;;;5.20;1.00;;;;;;4923377;29;20264;-75
2021/03/14 03:14:17;;;;;;;6.15;4.47;;;5.10;1.00;;;;;;4912023;28;20560;-75
2021/03/14 03:16:46;;;;;;;6.40;4.40;;;5.10;1.00;;;;;;4921910;28;20241;-74
2021/03/14 03:19:17;;;;;;;5.50;4.88;;;5.00;1.00;;;;;;4916761;28;20247;-75
2021/03/14 03:21:43;;;;;;;5.13;4.63;;;5.00;1.00;;;;;;4920308;28;20230;-75
2021/03/14 03:24:11;;;;;;;6.53;4.90;;;5.00;1.00;;;;;;4909132;28;20225;-75
2021/03/14 03:26:38;;;;;;;8.85;5.05;;;4.90;1.00;;;;;;4919763;28;20369;-75
2021/03/14 03:29:05;;;;;;;7.38;5.47;;;4.90;1.00;;;;;;4914507;29;20447;-75
2021/03/14 03:31:31;;;;;;;4.97;4.55;;;4.80;1.00;;;;;;4916112;28;20230;-75
2021/03/14 03:33:57;;;;;;;9.13;4.32;;;4.80;1.00;;;;;;4900122;29;20238;-74
2021/03/14 03:36:24;;;;;;;6.60;5.20;;;4.80;1.00;;;;;;4912876;29;20232;-75
2021/03/14 03:38:50;;;;;;;7.30;4.55;;;4.70;1.00;;;;;;4902906;28;20614;-74
2021/03/14 03:41:16;;;;;;;6.97;4.82;;;4.70;1.00;;;;;;4911616;29;20226;-75
2021/03/14 03:43:43;;;;;;;4.20;3.90;;;4.70;1.00;;;;;;4902948;29;20331;-76
2021/03/14 03:46:11;;;;;;;3.78;3.40;;;4.60;1.00;;;;;;4901933;28;20226;-75
2021/03/14 03:48:42;;;;;;;4.22;3.83;;;4.60;1.00;;;;;;4913504;28;23771;-75
2021/03/14 03:51:09;;;;;;;3.60;3.30;;;4.60;1.00;;;;;;4900723;29;20238;-75
2021/03/14 03:53:38;;;;;;;5.15;3.83;;;4.50;1.00;;;;;;4897642;29;20314;-76
2021/03/14 03:56:06;;;;;;;3.67;3.33;;;4.50;1.00;;;;;;4900067;28;20721;-77
2021/03/14 03:58:33;;;;;;;2.90;2.70;;;4.40;1.00;;;;;;4925095;29;20242;-74
2021/03/14 04:01:01;;;;;;;3.17;2.88;;;4.40;1.00;;;;;;4905080;28;20225;-74
2021/03/14 04:03:31;;;;;;;2.90;2.60;;;4.40;1.00;;;;;;4912421;29;20229;-74
2021/03/14 04:05:59;;;;;;;3.17;2.90;;;4.40;1.00;;;;;;4907319;28;20236;-74
2021/03/14 04:08:26;;;;;;;3.03;2.83;;;4.40;1.00;;;;;;4916855;29;23667;-75
2021/03/14 04:10:54;;;;;;;4.22;2.80;;;4.40;1.00;;;;;;4900266;29;21841;-74
2021/03/14 04:13:21;;;;;;;4.13;2.72;;;4.40;1.00;;;;;;4915825;28;20762;-74
2021/03/14 04:15:48;;;;;;;3.00;2.65;;;4.30;1.00;;;;;;4900498;28;20297;-75
2021/03/14 04:18:16;;;;;;;3.88;2.80;;;4.30;1.00;;;;;;4914731;28;20248;-74
2021/03/14 04:20:43;;;;;;;3.33;2.30;;;4.30;1.00;;;;;;4903515;28;20226;-76
2021/03/14 04:23:13;;;;;;;2.88;1.88;;;4.30;1.00;;;;;;4915123;28;20243;-74
2021/03/14 04:25:40;;;;;;;3.78;1.77;;;4.30;1.00;;;;;;4922815;29;20285;-77
2021/03/14 04:28:08;;;;;;;2.85;1.98;;;4.30;1.00;;;;;;4930311;29;20782;-75
2021/03/14 04:30:37;;;;;;;2.20;1.58;;;4.30;1.00;;;;;;4920366;28;20236;-74
2021/03/14 04:33:05;;;;;;;1.80;1.38;;;4.20;1.00;;;;;;4914351;29;21021;-74
2021/03/14 04:35:32;;;;;;;2.30;2.10;;;4.20;1.00;;;;;;4916932;28;20225;-76
2021/03/14 04:37:59;;;;;;;7.35;1.65;;;4.20;1.00;;;;;;4902593;29;20612;-73
2021/03/14 04:40:27;;;;;;;1.85;1.52;;;4.10;1.00;;;;;;4911493;28;20226;-74
2021/03/14 04:42:54;;;;;;;1.90;1.60;;;4.20;1.00;;;;;;4883634;29;20344;-74
2021/03/14 04:45:23;;;;;;;1.60;1.50;;;4.10;1.00;;;;;;4913312;29;20257;-75
2021/03/14 04:47:49;;;;;;;2.97;1.73;;;4.20;1.00;;;;;;4899937;28;20353;-75
2021/03/14 04:50:19;;;;;;;1.73;1.52;;;4.10;1.00;;;;;;4910989;29;20226;-75
2021/03/14 04:52:48;;;;;;;2.25;1.90;;;4.10;1.00;;;;;;4898259;28;20703;-74
2021/03/14 04:55:15;;;;;;;1.85;1.65;;;4.10;1.00;;;;;;4909801;29;20295;-73
2021/03/14 04:57:42;;;;;;;1.55;1.45;;;4.10;1.00;;;;;;4900306;28;20737;-75
2021/03/14 05:00:10;;;;;;;2.25;1.83;;;4.10;1.00;;;;;;4909107;29;20741;-74
2021/03/14 05:02:39;;;;;;;1.73;1.50;;;4.10;1.00;;;;;;4883320;29;20378;-74
2021/03/14 05:05:07;;;;;;;1.75;1.50;;;4.10;1.00;;;;;;4913964;28;20221;-76
2021/03/14 05:07:36;;;;;;;1.70;1.60;;;4.00;1.00;;;;;;4892265;28;20302;-76
2021/03/14 05:10:04;;;;;;;2.53;1.48;;;4.00;1.00;;;;;;4903334;28;20691;-74
2021/03/14 05:12:31;;;;;;;1.52;1.27;;;4.00;1.00;;;;;;4896239;29;20494;-76
2021/03/14 05:14:58;;;;;;;1.63;1.48;;;4.00;1.00;;;;;;4911106;28;20824;-76
2021/03/14 05:17:25;;;;;;;1.77;1.40;;;4.00;1.00;;;;;;4906266;28;20246;-73
2021/03/14 05:19:55;;;;;;;1.80;1.42;;;4.00;1.00;;;;;;4907910;29;21232;-75
2021/03/14 05:22:22;;;;;;;2.42;1.58;;;4.00;1.00;;;;;;4913249;28;20377;-75
2021/03/14 05:24:49;;;;;;;1.90;1.60;;;4.00;1.00;;;;;;4899824;29;20236;-75
2021/03/14 05:27:17;;;;;;;1.63;1.50;;;4.00;1.00;;;;;;4911535;28;20579;-75
2021/03/14 05:29:45;;;;;;;1.92;1.27;;;4.00;1.00;;;;;;4899074;29;20313;-76
2021/03/14 05:32:11;;;;;;;2.00;1.70;;;4.00;1.00;;;;;;4910495;29;20313;-73
2021/03/14 05:34:38;;;;;;;2.38;1.83;;;3.90;1.00;;;;;;4900379;28;20273;-73
2021/03/14 05:37:05;;;;;;;2.33;2.10;;;4.00;1.00;;;;;;4912227;29;20238;-74
2021/03/14 05:39:31;;;;;;;2.35;2.15;;;4.00;1.00;;;;;;4898727;28;20659;-74
2021/03/14 05:41:59;;;;;;;2.20;1.60;;;3.90;1.00;;;;;;4911959;29;20330;-74
2021/03/14 05:44:25;;;;;;;1.92;1.60;;;3.90;1.00;;;;;;4887094;29;20313;-74
2021/03/14 05:46:51;;;;;;;1.42;1.30;;;3.90;1.00;;;;;;4919266;28;20317;-76
2021/03/14 05:49:17;;;;;;;2.50;2.28;;;3.90;1.00;;;;;;4894762;29;20264;-75
2021/03/14 05:51:49;;;;;;;2.45;1.60;;;3.90;1.00;;;;;;4895394;29;20234;-75
2021/03/14 05:54:17;;;;;;;1.45;1.30;;;3.90;1.00;;;;;;4893247;29;20268;-75
2021/03/14 05:56:46;;;;;;;3.65;1.50;;;3.90;1.00;;;;;;4899367;29;21032;-74
2021/03/14 05:59:14;;;;;;;3.60;1.80;;;3.90;1.00;;;;;;4897542;29;20329;-76
2021/03/14 06:01:45;;;;;;;2.55;2.00;;;3.90;1.00;;;;;;4909228;28;20232;-76
2021/03/14 06:04:13;;;;;;;2.13;1.50;;;3.90;1.00;;;;;;4910076;29;20236;-73
2021/03/14 06:06:39;;;;;;;1.75;1.48;;;3.90;1.00;;;;;;4896703;29;20260;-74
2021/03/14 06:09:06;;;;;;;2.10;1.40;;;3.90;1.00;;;;;;4916279;28;20301;-76
2021/03/14 06:11:33;;;;;;;1.90;1.65;;;3.90;1.00;;;;;;4899761;28;20240;-75
2021/03/14 06:14:00;;;;;;;1.73;1.60;;;3.90;1.00;;;;;;4913960;28;20237;-74
2021/03/14 06:16:27;;;;;;;1.52;1.42;;;3.90;1.00;;;;;;4913337;28;20313;-73
2021/03/14 06:18:53;;;;;;;1.70;1.42;;;3.90;1.00;;;;;;4913896;28;20253;-73
2021/03/14 06:21:21;;;;;;;2.17;1.98;;;3.90;1.00;;;;;;4899731;29;20289;-75
2021/03/14 06:23:58;;;;;;;2.20;2.00;;;3.90;1.00;;;;;;4914145;29;20832;-72
2021/03/14 06:26:39;;;;;;;2.22;1.90;;;4.00;1.00;;;;;;4897864;28;20222;-74
2021/03/14 06:29:25;;;;;;;2.90;2.58;;;4.00;1.00;;;;;;4912637;29;20664;-75
2021/03/14 06:31:54;;;;;;;3.47;2.30;;;4.00;1.00;;;;;;4899983;28;20237;-76
2021/03/14 06:34:25;;;;;;;2.50;2.30;;;4.00;1.00;;;;;;4916106;29;20262;-75
2021/03/14 06:36:52;;;;;;;3.10;2.70;;;4.00;1.00;;;;;;4894149;28;20226;-76
2021/03/14 06:39:22;;;;;;;3.75;2.20;;;4.00;1.00;;;;;;4895411;29;20728;-76
2021/03/14 06:41:49;;;;;;;4.68;3.75;;;4.00;1.00;;;;;;4898334;28;20846;-76
2021/03/14 06:44:25;;;;;;;2.90;2.70;;;4.00;1.00;;;;;;4912208;29;20232;-75
2021/03/14 06:46:52;;;;;;;3.17;2.88;;;4.10;1.00;;;;;;4898183;29;20233;-75
2021/03/14 06:49:20;;;;;;;3.25;2.70;;;4.10;1.00;;;;;;4894430;29;20231;-75
2021/03/14 06:51:47;;;;;;;4.03;3.22;;;4.10;1.00;;;;;;4897370;28;20225;-76
2021/03/14 06:54:22;;;;;;;3.50;3.00;;;4.10;1.00;;;;;;4913763;28;24003;-74
2021/03/14 06:56:58;;;;;;;3.92;3.10;;;4.10;1.00;;;;;;4903784;29;20234;-75
2021/03/14 06:59:25;;;;;;;4.38;3.13;;;4.10;1.00;;;;;;4909776;28;20241;-75
2021/03/14 07:01:58;;;;;;;3.15;2.65;;;4.20;1.00;;;;;;4899656;29;20290;-74
2021/03/14 07:04:35;;;;;;;3.25;2.95;;;4.20;1.00;;;;;;4913031;29;20735;-74
2021/03/14 07:07:02;;;;;;;2.53;2.08;;;4.20;1.00;;;;;;4903294;28;20378;-76
2021/03/14 07:09:28;;;;;;;3.13;2.75;;;4.20;1.00;;;;;;4911286;28;20242;-74
2021/03/14 07:11:55;;;;;;;4.50;2.90;;;4.20;1.00;;;;;;4900269;28;20324;-73
2021/03/14 07:14:24;;;;;;;3.33;2.53;;;4.20;1.00;;;;;;4913355;28;20238;-76
2021/03/14 07:16:52;;;;;;;5.00;3.45;;;4.30;1.00;;;;;;4916615;29;21019;-74
2021/03/14 07:19:22;;;;;;;3.95;3.55;;;4.30;1.00;;;;;;4904852;29;20708;-75
2021/03/14 07:22:02;;;;;;;2.95;2.25;;;4.30;1.00;;;;;;4918736;28;20766;-75
2021/03/14 07:24:33;;;;;;;2.83;2.58;;;4.30;1.00;;;;;;4903377;28;20317;-73
2021/03/14 07:27:00;;;;;;;3.30;2.55;;;4.40;1.00;;;;;;4917237;28;20240;-73
2021/03/14 07:29:29;;;;;;;2.85;2.45;;;4.30;1.00;;;;;;4904743;29;20233;-74
2021/03/14 07:31:56;;;;;;;3.10;2.75;;;4.30;1.00;;;;;;4911481;28;21272;-75
2021/03/14 07:34:22;;;;;;;1.98;1.88;;;4.40;1.00;;;;;;4901885;29;20234;-74
2021/03/14 07:36:49;;;;;;;2.42;2.22;;;4.40;1.00;;;;;;4909707;29;20222;-76
2021/03/14 07:39:16;;;;;;;2.95;2.08;;;4.40;1.00;;;;;;4901867;28;20242;-76
2021/03/14 07:41:43;;;;;;;2.85;1.65;;;4.40;1.00;;;;;;4913133;29;20301;-74
2021/03/14 07:44:10;;;;;;;3.10;2.00;;;4.40;1.00;;;;;;4897120;28;20725;-74
2021/03/14 07:46:40;;;;;;;2.35;2.15;;;4.50;1.00;;;;;;4912021;29;21388;-75
2021/03/14 07:49:07;;;;;;;2.85;2.00;;;4.50;1.00;;;;;;4895860;28;20775;-75
2021/03/14 07:51:36;;;;;;;2.65;2.00;;;4.50;1.00;;;;;;4914261;29;20685;-74
2021/03/14 07:54:05;;;;;;;2.00;1.70;;;4.50;1.00;;;;;;4900631;28;20239;-72
2021/03/14 07:56:34;;;;;;;2.40;2.20;;;4.50;1.00;;;;;;4913968;28;20238;-76
2021/03/14 07:59:00;;;;;;;2.85;1.70;;;4.60;1.00;;;;;;4898402;29;20272;-74
2021/03/14 08:01:28;;;;;;;2.15;1.73;;;4.60;1.00;;;;;;4915543;28;20236;-75
2021/03/14 08:03:56;;;;;;;2.55;1.85;;;4.70;1.00;;;;;;4926119;29;20333;-73
2021/03/14 08:06:50;;;;;;;2.00;1.70;;;4.70;1.00;;;;;;4926532;28;20226;-74
2021/03/14 08:09:42;;;;;;;2.58;2.10;;;4.70;1.00;;;;;;4913972;29;20241;-74
2021/03/14 08:12:16;;;;;;;2.67;2.03;;;4.70;1.00;;;;;;4924757;28;20230;-75
2021/03/14 08:14:43;;;;;;;2.40;1.90;;;4.80;1.00;;;;;;4912741;28;20233;-74
2021/03/14 08:17:17;;;;;;;3.80;1.95;;;4.80;1.00;;;;;;4920471;28;20240;-74
2021/03/14 08:19:45;;;;;;;2.05;1.70;;;4.90;1.00;;;;;;4908292;29;22202;-75
2021/03/14 08:22:45;;;;;;;3.22;2.00;;;5.00;1.00;;;;;;4919623;29;20305;-74
2021/03/14 08:25:26;;;;;;;2.67;1.80;;;5.00;1.00;;;;;;4911024;28;20357;-74
2021/03/14 08:27:54;;;;;;;2.00;1.60;;;5.00;1.00;;;;;;4925435;29;20220;-75
2021/03/14 08:30:48;;;;;;;2.08;1.88;;;5.00;1.00;;;;;;4922920;28;20285;-74
2021/03/14 08:33:25;;;;;;;2.47;2.20;;;5.10;1.00;;;;;;4923713;29;20238;-74
2021/03/14 08:35:53;;;;;;;3.78;2.33;;;5.10;1.00;;;;;;4912590;28;20316;-75
2021/03/14 08:38:35;;;;;;;3.05;2.17;;;5.10;1.00;;;;;;4919498;29;20245;-74
2021/03/14 08:41:29;;;;;;;3.13;2.40;;;5.10;1.00;;;;;;4923522;28;20336;-73
2021/03/14 08:44:01;;;;;;;4.35;2.40;;;5.20;1.00;;;;;;4928881;29;20240;-74
2021/03/14 08:47:05;;;;;;;2.97;2.05;;;5.20;1.00;;;;;;4911839;28;20229;-75
2021/03/14 08:49:40;;;;;;;4.00;2.35;;;5.20;1.00;;;;;;4929733;29;21315;-74
2021/03/14 08:52:09;;;;;;;4.53;2.40;;;5.20;1.00;;;;;;4919286;28;20233;-75
2021/03/14 08:54:37;;;;;;;4.80;2.83;;;5.20;1.00;;;;;;4930517;29;20218;-75
2021/03/14 08:57:05;;;;;;;5.35;2.90;;;5.30;1.00;;;;;;4901458;29;20229;-74
2021/03/14 08:59:32;;;;;;;5.20;3.00;;;5.30;1.00;;;;;;4927733;28;20245;-75
2021/03/14 09:01:59;;;;;;;4.55;2.70;;;5.30;1.00;;;;;;4913764;29;20240;-72
2021/03/14 09:04:28;;;;;;;3.78;2.63;;;5.30;1.00;;;;;;4922672;28;20295;-74
2021/03/14 09:07:01;;;;;;;3.33;2.50;;;5.30;1.00;;;;;;4911158;28;20252;-73
2021/03/14 09:09:28;;;;;;;4.50;2.75;;;5.20;1.00;;;;;;4926153;28;20644;-75
2021/03/14 09:11:56;;;;;;;3.75;3.45;;;5.00;1.00;;;;;;4900085;29;20257;-75
2021/03/14 09:14:34;;;;;;;5.55;4.43;;;5.00;1.00;;;;;;4906051;29;20360;-74
2021/03/14 09:17:04;;;;;;;6.00;4.45;;;4.90;1.00;;;;;;4888675;29;20230;-71
2021/03/14 09:19:34;;;;;;;5.68;4.68;;;5.00;1.00;;;;;;4921447;29;20297;-70
2021/03/14 09:22:03;;;;;;;4.45;3.60;;;5.10;1.00;;;;;;4892857;29;20326;-71
2021/03/14 09:24:49;;;;;;;2.40;2.00;;;5.20;1.00;;;;;;4912990;29;20682;-71
2021/03/14 09:27:17;;;;;;;2.63;1.90;;;5.40;1.00;;;;;;4891591;28;21024;-70
2021/03/14 09:29:52;;;;;;;4.00;2.63;;;5.50;1.00;;;;;;4906127;29;20229;-71
2021/03/14 09:32:23;;;;;;;2.97;1.95;;;5.60;1.00;;;;;;4898375;28;21830;-70
2021/03/14 09:34:50;;;;;;;4.25;2.45;;;5.70;1.00;;;;;;4909167;28;21037;-71
2021/03/14 09:37:28;;;;;;;3.63;2.50;;;5.80;1.00;;;;;;4907390;29;20225;-71
2021/03/14 09:40:10;;;;;;;3.45;2.30;;;6.00;1.00;;;;;;4910313;28;20234;-71
2021/03/14 09:42:39;;;;;;;3.55;2.83;;;6.00;1.00;;;;;;4914514;29;20818;-71
2021/03/14 09:45:08;;;;;;;3.80;2.35;;;6.00;1.00;;;;;;4914541;28;20245;-72
2021/03/14 09:47:35;;;;;;;4.32;2.67;;;5.90;1.00;;;;;;4914267;29;21897;-71
2021/03/14 09:50:05;;;;;;;8.50;3.15;;;5.90;1.00;;;;;;4900326;29;20288;-71
2021/03/14 09:52:31;;;;;;;4.47;3.47;;;5.80;1.00;;;;;;4915065;28;20230;-70
2021/03/14 09:55:01;;;;;;;6.05;3.42;;;5.90;1.00;;;;;;4909281;28;20295;-70
2021/03/14 09:57:28;;;;;;;4.90;4.15;;;6.00;1.00;;;;;;4910774;28;20225;-71
2021/03/14 09:59:57;;;;;;;5.45;3.10;;;6.10;1.00;;;;;;4899143;28;20219;-70
2021/03/14 10:02:23;;;;;;;3.72;2.60;;;6.20;1.00;;;;;;4908325;28;20465;-70
2021/03/14 10:04:50;;;;;;;4.22;2.58;;;6.40;1.00;;;;;;4895992;29;20241;-70
2021/03/14 10:07:21;;;;;;;4.18;2.72;;;6.50;1.00;;;;;;4910168;28;20237;-69
2021/03/14 10:09:47;;;;;;;4.25;3.25;;;6.60;1.00;;;;;;4895972;29;20239;-73
2021/03/14 10:12:14;;;;;;;6.15;4.05;;;6.60;1.00;;;;;;4910214;29;20241;-71
2021/03/14 10:14:42;;;;;;;3.90;3.20;;;6.70;1.00;;;;;;4897525;28;20235;-71
2021/03/14 10:17:10;;;;;;;3.70;3.03;;;6.70;1.00;;;;;;4912965;29;20237;-70
2021/03/14 10:19:37;;;;;;;4.38;3.70;;;6.60;1.00;;;;;;4898297;28;20253;-71
2021/03/14 10:22:03;;;;;;;4.60;3.83;;;6.60;1.00;;;;;;4913809;29;20369;-70
2021/03/14 10:24:31;;;;;;;4.05;3.65;;;6.40;1.00;;;;;;4905376;28;20258;-69
2021/03/14 10:26:59;;;;;;;5.60;3.45;;;6.30;1.00;;;;;;4910740;28;20932;-72
2021/03/14 10:29:30;;;;;;;4.15;3.28;;;6.30;1.00;;;;;;4910446;29;20284;-70
2021/03/14 10:31:57;;;;;;;6.03;4.20;;;6.40;1.00;;;;;;4886322;29;20234;-71
2021/03/14 10:34:24;;;;;;;5.57;3.38;;;6.50;1.00;;;;;;4913461;29;20234;-70
2021/03/14 10:36:53;;;;;;;4.80;3.60;;;6.60;1.00;;;;;;4899498;28;20479;-70
2021/03/14 10:39:25;;;;;;;7.40;4.00;;;6.70;1.00;;;;;;4913712;29;20281;-70
2021/03/14 10:41:52;;;;;;;4.93;3.80;;;6.80;1.00;;;;;;4899420;29;20261;-70
2021/03/14 10:44:19;;;;;;;3.95;3.25;;;7.00;1.00;;;;;;4917921;28;20233;-72
2021/03/14 10:46:49;;;;;;;7.15;3.85;;;7.00;1.00;;;;;;4906511;29;20229;-70
2021/03/14 10:49:18;;;;;;;6.00;4.10;;;6.80;1.00;;;;;;4911108;28;20225;-71
2021/03/14 10:51:49;;;;;;;5.38;4.13;;;6.70;1.00;;;;;;4902618;29;20230;-70
2021/03/14 10:54:17;;;;;;;5.63;3.45;;;6.60;1.00;;;;;;4895883;29;20242;-70
2021/03/14 10:56:45;;;;;;;7.18;3.97;;;6.50;1.00;;;;;;4905593;28;20461;-72
2021/03/14 10:59:23;;;;;;;4.18;3.45;;;6.40;1.00;;;;;;4914726;29;20241;-71
2021/03/14 11:01:53;;;;;;;6.80;3.78;;;6.40;1.00;;;;;;4916131;28;20226;-72
2021/03/14 11:04:27;;;;;;;5.60;3.40;;;6.50;1.00;;;;;;4928791;28;20817;-70
2021/03/14 11:06:55;;;;;;;6.82;4.90;;;6.60;1.00;;;;;;4914388;28;21144;-69
2021/03/14 11:09:21;;;;;;;7.15;4.15;;;6.60;1.00;;;;;;4928484;29;20277;-72
2021/03/14 11:11:49;;;;;;;7.78;3.30;;;6.70;1.00;;;;;;4916930;29;20567;-74
2021/03/14 11:14:29;;;;;;;4.40;3.50;;;6.70;1.00;;;;;;4935712;28;20213;-81
2021/03/14 11:17:06;;;;;;;6.20;4.50;;;6.80;1.00;;;;;;4911769;29;20776;-81
2021/03/14 11:19:34;;;;;;;7.28;4.20;;;6.80;1.00;;;;;;4917285;29;20263;-81
2021/03/14 11:22:01;;;;;;;7.63;4.38;;;6.80;1.00;;;;;;4907302;29;20230;-82
2021/03/14 11:24:29;;;;;;;4.18;3.75;;;6.90;1.00;;;;;;4917924;29;20295;-80
2021/03/14 11:26:56;;;;;;;5.00;3.67;;;7.00;1.00;;;;;;4922988;29;20312;-80
2021/03/14 11:29:25;;;;;;;7.40;3.78;;;7.00;1.00;;;;;;4915551;29;20230;-81
2021/03/14 11:31:55;;;;;;;6.10;3.70;;;7.00;1.00;;;;;;4911429;29;20236;-81
2021/03/14 11:34:22;;;;;;;5.78;3.90;;;7.00;1.00;;;;;;4931904;29;20218;-79
2021/03/14 11:36:49;;;;;;;6.75;5.55;;;7.00;1.00;;;;;;4941206;28;20242;-80
2021/03/14 11:39:16;;;;;;;4.88;3.80;;;7.10;1.00;;;;;;4926534;28;20240;-80
2021/03/14 11:41:43;;;;;;;5.75;3.63;;;7.20;1.00;;;;;;4929093;28;20228;-80
2021/03/14 11:44:09;;;;;;;5.20;3.58;;;7.20;1.00;;;;;;4902980;29;20230;-80
2021/03/14 11:46:36;;;;;;;6.07;4.05;;;7.20;1.00;;;;;;4931875;29;20250;-80
2021/03/14 11:49:04;;;;;;;4.95;3.75;;;7.10;1.00;;;;;;4922669;29;21009;-80
2021/03/14 11:51:30;;;;;;;6.10;4.20;;;7.30;1.00;;;;;;4934381;29;20305;-80
2021/03/14 11:53:59;;;;;;;4.93;4.22;;;7.50;1.00;;;;;;4916961;28;20226;-80
2021/03/14 11:56:26;;;;;;;6.30;3.42;;;7.90;1.00;;;;;;4927840;29;22553;-79
2021/03/14 11:58:53;;;;;;;4.75;4.28;;;8.40;1.00;;;;;;4919032;28;20246;-80
2021/03/14 12:01:20;;;;;;;6.95;3.75;;;8.80;1.00;;;;;;4930718;28;20222;-79
2021/03/14 12:03:46;;;;;;;5.20;2.95;;;8.90;1.00;;;;;;4917386;28;20245;-80
2021/03/14 12:06:13;;;;;;;4.80;3.00;;;9.50;1.00;;;;;;4924952;28;21007;-78
2021/03/14 12:08:40;;;;;;;4.90;3.33;;;9.70;1.00;;;;;;4899483;28;20238;-78
2021/03/14 12:11:07;;;;;;;6.93;3.42;;;9.70;1.00;;;;;;4924209;28;20226;-80
2021/03/14 12:13:33;;;;;;;5.57;3.70;;;9.60;1.00;;;;;;4913703;29;20237;-79
2021/03/14 12:16:00;;;;;;;3.50;2.97;;;10.60;1.00;;;;;;4926920;29;20234;-79
2021/03/14 12:18:27;;;;;;;3.88;3.20;;;11.80;1.00;;;;;;4927178;28;21259;-80
2021/03/14 12:20:54;;;;;;;4.83;3.47;;;12.20;1.00;;;;;;4915801;29;20301;-79
2021/03/14 12:23:20;;;;;;;6.40;3.83;;;12.30;1.00;;;;;;4926399;28;20483;-80
2021/03/14 12:25:46;;;;;;;4.50;3.20;;;12.80;1.00;;;;;;4915151;29;20474;-78
2021/03/14 12:28:13;;;;;;;5.03;2.50;;;13.20;1.00;;;;;;4909064;29;20450;-79
2021/03/14 12:30:40;;;;;;;5.47;3.30;;;12.90;1.00;;;;;;4915689;28;20581;-80
2021/03/14 12:33:06;;;;;;;6.57;2.93;;;12.00;1.00;;;;;;4928330;29;20453;-79
2021/03/14 12:35:33;;;;;;;4.40;3.15;;;11.20;1.00;;;;;;4896898;29;20489;-81
2021/03/14 12:37:59;;;;;;;6.65;3.90;;;10.70;1.00;;;;;;4925755;29;20256;-80
2021/03/14 12:40:26;;;;;;;8.18;3.58;;;10.10;1.00;;;;;;4915054;29;20285;-78
2021/03/14 12:42:52;;;;;;;4.25;2.90;;;9.60;1.00;;;;;;4924816;28;20714;-80
2021/03/14 12:45:21;;;;;;;6.15;3.50;;;9.00;1.00;;;;;;4900017;29;21170;-78
2021/03/14 12:47:48;;;;;;;5.03;3.70;;;8.50;1.00;;;;;;4919329;29;20234;-80
2021/03/14 12:50:14;;;;;;;4.80;3.10;;;8.20;1.00;;;;;;4913429;29;20293;-79
2021/03/14 12:52:41;;;;;;;5.30;3.00;;;7.80;1.00;;;;;;4909751;28;20286;-81
2021/03/14 12:55:11;;;;;;;4.43;3.05;;;7.60;1.00;;;;;;4926462;29;20222;-79
2021/03/14 12:57:39;;;;;;;7.95;5.28;;;7.50;1.00;;;;;;4937983;29;20222;-80
2021/03/14 13:00:07;;;;;;;9.10;3.40;;;7.30;1.00;;;;;;4928259;28;20586;-79
2021/03/14 13:02:35;;;;;;;5.00;3.33;;;7.20;1.00;;;;;;4919918;29;20312;-81
2021/03/14 13:05:02;;;;;;;7.18;3.13;;;7.40;1.00;;;;;;4924178;28;20285;-79
2021/03/14 13:07:28;;;;;;;4.90;3.50;;;7.60;1.00;;;;;;4919912;29;20475;-80
2021/03/14 13:09:55;;;;;;;3.00;2.53;;;7.70;1.00;;;;;;4930222;29;20225;-79
2021/03/14 13:12:21;;;;;;;4.72;2.65;;;8.00;1.00;;;;;;4918475;28;20265;-80
2021/03/14 13:14:47;;;;;;;3.95;2.50;;;8.40;1.00;;;;;;4934151;29;20262;-80